createdAt,value
2019-04-21T00:00:32.689Z,100064.08
2019-04-21T00:03:11.248Z,100056.70
2019-04-21T00:06:03.300Z,100057.87
2019-04-21T00:08:39.253Z,100058.04
2019-04-21T00:11:09.724Z,100053.16
2019-04-21T00:13:39.420Z,100048.25
2019-04-21T00:16:00.267Z,100044.34
2019-04-21T00:19:00.834Z,100043.98
2019-04-21T00:21:36.398Z,100040.00
2019-04-21T00:24:28.986Z,100039.72
2019-04-21T00:27:03.833Z,100031.11
2019-04-21T00:29:52.014Z,100033.41
2019-04-21T00:32:10.108Z,100029.98
2019-04-21T00:34:28.186Z,100028.98
2019-04-21T00:37:12.297Z,100024.22
2019-04-21T00:40:02.220Z,100023.06
2019-04-21T00:42:29.076Z,100020.00
2019-04-21T00:44:59.226Z,100017.70
2019-04-21T00:47:38.838Z,100014.32
2019-04-21T00:50:13.856Z,100005.59
2019-04-21T00:55:59.020Z,100007.64
2019-04-21T00:58:33.268Z,100009.45
2019-04-21T01:01:07.168Z,100012.31
2019-04-21T01:03:40.146Z,100008.21
2019-04-21T01:06:16.380Z,100006.33
2019-04-21T01:08:50.701Z,100006.89
2019-04-21T01:11:29.777Z,100004.23
2019-04-21T01:13:58.015Z,100007.70
2019-04-21T01:16:34.569Z,100005.08
2019-04-21T01:19:05.027Z,100005.36
2019-04-21T01:21:17.501Z,99997.52
2019-04-21T01:23:50.756Z,99997.12
2019-04-21T01:26:35.267Z,99994.54
2019-04-21T01:29:12.049Z,99995.19
2019-04-21T01:31:51.233Z,99994.83
2019-04-21T01:34:30.399Z,99994.19
2019-04-21T01:36:58.836Z,99996.00
2019-04-21T01:39:41.379Z,99987.91
2019-04-21T01:42:11.358Z,99990.97
2019-04-21T01:45:01.871Z,99988.52
2019-04-21T01:47:13.085Z,99986.06
2019-04-21T01:49:43.215Z,99980.19
2019-04-21T01:52:41.699Z,99984.05
2019-04-21T01:55:28.893Z,99983.52
2019-04-21T01:58:09.390Z,99977.20
2019-04-21T02:00:56.731Z,99983.08
2019-04-21T02:04:22.790Z,99987.98
2019-04-21T02:06:13.306Z,99989.67
2019-04-21T02:08:41.487Z,99981.22
2019-04-21T02:11:24.497Z,99977.11
2019-04-21T02:13:57.631Z,99970.76
2019-04-21T02:16:28.270Z,99972.41
2019-04-21T02:18:58.464Z,99966.70
2019-04-21T02:21:27.650Z,99969.75
2019-04-21T02:24:16.989Z,99967.30
2019-04-21T02:26:47.669Z,99963.16
2019-04-21T02:29:22.979Z,99961.17
2019-04-21T02:34:44.690Z,99961.41
2019-04-21T02:37:28.374Z,99957.47
2019-04-21T02:39:49.785Z,99953.48
2019-04-21T02:47:38.938Z,99941.08
2019-04-21T02:57:51.348Z,99935.19
2019-04-21T03:00:26.803Z,99938.31
2019-04-21T03:03:26.017Z,99932.11
2019-04-21T03:06:25.183Z,99920.13
2019-04-21T03:09:01.204Z,99916.06
2019-04-21T03:11:53.400Z,99911.58
2019-04-21T03:14:28.355Z,99913.75
2019-04-21T03:16:31.141Z,99909.59
2019-04-21T03:19:20.036Z,99909.83
2019-04-21T03:21:54.233Z,99907.97
2019-04-21T03:24:24.008Z,99903.06
2019-04-21T03:29:46.251Z,99903.64
2019-04-21T03:37:16.825Z,99901.03
2019-04-21T03:42:27.056Z,99899.62
2019-04-21T03:58:19.572Z,99885.77
2019-04-21T04:06:43.189Z,99876.83
2019-04-21T04:09:40.052Z,99881.37
2019-04-21T04:12:01.077Z,99881.06
2019-04-21T04:14:46.183Z,99878.92
2019-04-21T04:17:16.821Z,99878.77
2019-04-21T04:22:31.819Z,99870.64
2019-04-21T04:30:12.511Z,99871.61
2019-04-21T04:45:54.059Z,99869.92
2019-04-21T04:48:15.119Z,99865.38
2019-04-21T04:50:53.091Z,99862.56
2019-04-21T04:53:31.093Z,99868.50
2019-04-21T04:56:07.675Z,99865.82
2019-04-21T05:01:14.340Z,99862.27
2019-04-21T05:03:49.293Z,99863.34
2019-04-21T05:19:14.856Z,99863.14
2019-04-21T05:22:05.517Z,99861.34
2019-04-21T05:24:12.391Z,99862.77
2019-04-21T05:26:47.719Z,99860.98
2019-04-21T05:29:19.399Z,99864.17
2019-04-21T05:32:13.420Z,99865.91
2019-04-21T05:34:53.888Z,99866.00
2019-04-21T05:37:43.745Z,99864.48
2019-04-21T05:40:22.094Z,99861.64
2019-04-21T05:43:03.349Z,99865.36
2019-04-21T05:45:56.657Z,99866.05
2019-04-21T05:48:30.631Z,99866.02
2019-04-21T05:51:00.217Z,99868.34
2019-04-21T05:53:36.200Z,99864.30
2019-04-21T05:56:17.235Z,99859.84
2019-04-21T05:58:43.629Z,99857.96
2019-04-21T06:01:31.392Z,99862.16
2019-04-21T06:03:57.765Z,99861.06
2019-04-21T06:06:43.562Z,99860.62
2019-04-21T06:09:00.904Z,99857.91
2019-04-21T06:11:36.327Z,99858.76
2019-04-21T06:14:14.187Z,99851.28
2019-04-21T06:16:49.412Z,99853.93
2019-04-21T06:19:28.940Z,99851.52
2019-04-21T06:21:54.243Z,99854.63
2019-04-21T06:24:32.489Z,99846.09
2019-04-21T06:27:22.694Z,99851.39
2019-04-21T06:29:39.851Z,99848.85
2019-04-21T06:32:38.590Z,99842.73
2019-04-21T06:35:07.074Z,99840.59
2019-04-21T06:40:15.490Z,99830.27
2019-04-21T06:42:34.314Z,99831.88
2019-04-21T06:45:16.567Z,99825.81
2019-04-21T06:50:22.714Z,99826.17
2019-04-21T06:53:00.772Z,99825.19
2019-04-21T06:55:27.830Z,99823.88
2019-04-21T06:57:58.244Z,99826.47
2019-04-21T07:00:31.576Z,99826.13
2019-04-21T07:03:17.092Z,99828.48
2019-04-21T07:05:50.589Z,99825.53
2019-04-21T07:08:31.195Z,99823.31
2019-04-21T07:10:54.477Z,99825.86
2019-04-21T07:13:21.806Z,99829.12
2019-04-21T07:16:04.643Z,99830.02
2019-04-21T07:18:37.061Z,99826.70
2019-04-21T07:21:08.175Z,99820.49
2019-04-21T07:23:48.531Z,99822.55
2019-04-21T07:26:23.269Z,99822.33
2019-04-21T07:28:56.327Z,99816.27
2019-04-21T07:31:29.139Z,99821.23
2019-04-21T07:34:11.102Z,99820.56
2019-04-21T07:36:46.440Z,99816.66
2019-04-21T07:39:00.237Z,99819.85
2019-04-21T07:41:39.756Z,99816.42
2019-04-21T07:44:06.269Z,99814.48
2019-04-21T07:46:38.531Z,99814.48
2019-04-21T07:49:44.650Z,99813.02
2019-04-21T07:52:37.759Z,99801.85
2019-04-21T07:57:35.423Z,99802.70
2019-04-21T08:02:49.687Z,99801.78
2019-04-21T08:05:40.423Z,99790.91
2019-04-21T08:08:03.309Z,99790.95
2019-04-21T08:10:26.190Z,99789.91
2019-04-21T08:13:09.526Z,99784.20
2019-04-21T08:15:41.645Z,99783.94
2019-04-21T08:18:16.630Z,99779.15
2019-04-21T08:20:50.726Z,99774.98
2019-04-21T08:23:25.599Z,99770.48
2019-04-21T08:26:07.956Z,99768.56
2019-04-21T08:28:35.512Z,99767.80
2019-04-21T08:31:09.878Z,99766.00
2019-04-21T08:36:19.038Z,99758.25
2019-04-21T08:38:48.482Z,99757.42
2019-04-21T08:41:18.132Z,99758.91
2019-04-21T08:43:55.050Z,99757.77
2019-04-21T08:46:31.779Z,99757.27
2019-04-21T08:49:04.398Z,99753.44
2019-04-21T08:51:41.264Z,99753.63
2019-04-21T08:54:15.083Z,99752.41
2019-04-21T08:57:07.787Z,99745.97
2019-04-21T09:00:05.863Z,99744.11
2019-04-21T09:03:02.165Z,99739.16
2019-04-21T09:05:18.991Z,99730.38
2019-04-21T09:07:55.694Z,99739.70
2019-04-21T09:10:28.375Z,99734.58
2019-04-21T09:12:58.813Z,99731.52
2019-04-21T09:15:33.753Z,99728.76
2019-04-21T09:18:04.949Z,99729.09
2019-04-21T09:20:47.372Z,99724.36
2019-04-21T09:23:15.929Z,99722.73
2019-04-21T09:25:52.360Z,99726.02
2019-04-21T09:28:24.149Z,99717.19
2019-04-21T09:30:47.472Z,99719.66
2019-04-21T09:33:16.025Z,99715.83
2019-04-21T09:35:54.600Z,99722.53
2019-04-21T09:38:29.915Z,99722.28
2019-04-21T09:40:58.267Z,99713.17
2019-04-21T09:43:40.234Z,99710.05
2019-04-21T09:46:06.159Z,99704.18
2019-04-21T09:48:49.867Z,99698.10
2019-04-21T09:51:13.163Z,99690.02
2019-04-21T09:53:53.642Z,99692.03
2019-04-21T09:56:31.243Z,99683.79
2019-04-21T09:59:04.065Z,99685.83
2019-04-21T10:01:36.380Z,99681.91
2019-04-21T10:04:04.321Z,99675.63
2019-04-21T10:06:37.320Z,99673.32
2019-04-21T10:09:14.162Z,99669.61
2019-04-21T10:11:44.139Z,99665.36
2019-04-21T10:14:17.644Z,99665.33
2019-04-21T10:17:06.880Z,99664.88
2019-04-21T10:19:39.745Z,99658.55
2019-04-21T10:22:12.648Z,99651.68
2019-04-21T10:24:46.426Z,99648.20
2019-04-21T10:27:19.154Z,99643.84
2019-04-21T10:29:52.259Z,99643.16
2019-04-21T10:32:25.431Z,99639.75
2019-04-21T10:34:59.104Z,99636.39
2019-04-21T10:37:44.124Z,99631.44
2019-04-21T10:40:07.409Z,99628.92
2019-04-21T10:42:40.409Z,99625.84
2019-04-21T10:45:14.800Z,99620.93
2019-04-21T10:47:47.304Z,99620.85
2019-04-21T10:50:20.421Z,99618.30
2019-04-21T10:53:27.176Z,99614.73
2019-04-21T10:56:13.447Z,99616.70
2019-04-21T10:58:40.369Z,99613.59
2019-04-21T11:01:15.007Z,99611.92
2019-04-21T11:03:53.016Z,99606.64
2019-04-21T11:06:26.527Z,99597.92
2019-04-21T11:09:01.412Z,99595.22
2019-04-21T11:11:34.838Z,99591.84
2019-04-21T11:14:08.443Z,99593.51
2019-04-21T11:16:43.057Z,99593.69
2019-04-21T11:19:17.845Z,99583.25
2019-04-21T11:21:50.367Z,99576.84
2019-04-21T11:24:23.093Z,99579.04
2019-04-21T11:26:55.893Z,99570.97
2019-04-21T11:29:28.680Z,99571.52
2019-04-21T11:32:01.195Z,99570.91
2019-04-21T11:34:34.685Z,99571.11
2019-04-21T11:37:10.167Z,99559.91
2019-04-21T11:39:51.980Z,99561.93
2019-04-21T11:42:31.940Z,99553.61
2019-04-21T11:45:06.306Z,99555.77
2019-04-21T11:47:43.502Z,99557.73
2019-04-21T11:50:17.040Z,99554.83
2019-04-21T11:52:49.594Z,99554.69
2019-04-21T11:55:22.908Z,99555.98
2019-04-21T11:57:56.520Z,99557.32
2019-04-21T12:00:29.503Z,99553.74
2019-04-21T12:03:03.693Z,99547.73
2019-04-21T12:05:37.278Z,99545.13
2019-04-21T12:08:21.259Z,99537.52
2019-04-21T12:10:45.036Z,99543.34
2019-04-21T12:13:18.293Z,99534.41
2019-04-21T12:15:50.820Z,99531.78
2019-04-21T12:18:26.319Z,99527.58
2019-04-21T12:20:57.675Z,99521.23
2019-04-21T12:23:30.359Z,99520.77
2019-04-21T12:26:03.205Z,99516.22
2019-04-21T12:28:35.620Z,99514.73
2019-04-21T12:31:27.684Z,99506.16
2019-04-21T12:34:03.542Z,99500.47
2019-04-21T12:36:36.090Z,99502.58
2019-04-21T12:39:10.895Z,99498.84
2019-04-21T12:41:44.567Z,99488.59
2019-04-21T12:44:18.383Z,99492.02
2019-04-21T12:46:51.967Z,99485.03
2019-04-21T12:49:25.615Z,99480.83
2019-04-21T12:51:59.658Z,99480.48
2019-04-21T12:54:33.373Z,99479.83
2019-04-21T12:57:05.921Z,99482.77
2019-04-21T12:59:39.588Z,99471.05
2019-04-21T13:02:12.155Z,99466.33
2019-04-21T13:04:45.889Z,99457.59
2019-04-21T13:07:19.439Z,99448.66
2019-04-21T13:09:52.621Z,99451.24
2019-04-21T13:12:25.185Z,99438.73
2019-04-21T13:14:59.268Z,99434.36
2019-04-21T13:17:33.075Z,99431.60
2019-04-21T13:20:07.336Z,99431.44
2019-04-21T13:22:39.846Z,99433.39
2019-04-21T13:25:12.304Z,99427.06
2019-04-21T13:27:47.153Z,99423.34
2019-04-21T13:30:22.248Z,99421.05
2019-04-21T13:32:55.510Z,99421.87
2019-04-21T13:35:28.916Z,99410.49
2019-04-21T13:38:02.633Z,99408.07
2019-04-21T13:41:23.060Z,99409.67
2019-04-21T13:43:43.357Z,99403.17
2019-04-21T13:46:15.896Z,99399.13
2019-04-21T13:48:48.469Z,99397.67
2019-04-21T13:51:20.897Z,99384.19
2019-04-21T13:53:53.581Z,99385.31
2019-04-21T13:56:26.753Z,99381.75
2019-04-21T13:59:00.284Z,99380.61
2019-04-21T14:01:33.933Z,99376.22
2019-04-21T14:04:07.334Z,99379.13
2019-04-21T14:06:40.576Z,99376.20
2019-04-21T14:09:15.600Z,99369.06
2019-04-21T14:11:49.396Z,99365.00
2019-04-21T14:14:23.917Z,99358.01
2019-04-21T14:16:56.462Z,99361.58
2019-04-21T14:19:31.060Z,99355.73
2019-04-21T14:22:03.657Z,99351.83
2019-04-21T14:24:37.121Z,99356.07
2019-04-21T14:27:10.236Z,99342.28
2019-04-21T14:29:43.841Z,99344.06
2019-04-21T14:32:16.332Z,99336.92
2019-04-21T14:34:50.610Z,99342.77
2019-04-21T14:37:22.872Z,99337.11
2019-04-21T14:40:01.855Z,99335.66
2019-04-21T14:42:29.835Z,99328.50
2019-04-21T14:45:03.186Z,99327.86
2019-04-21T14:47:42.229Z,99329.64
2019-04-21T14:50:52.494Z,99331.44
2019-04-21T14:53:27.714Z,99323.98
2019-04-21T14:56:01.444Z,99319.12
2019-04-21T14:58:35.042Z,99315.70
2019-04-21T15:01:08.343Z,99317.34
2019-04-21T15:03:41.696Z,99314.89
2019-04-21T15:06:15.622Z,99309.69
2019-04-21T15:08:49.150Z,99314.07
2019-04-21T15:11:22.182Z,99309.85
2019-04-21T15:13:55.898Z,99310.66
2019-04-21T15:16:29.090Z,99301.27
2019-04-21T15:19:02.401Z,99297.68
2019-04-21T15:21:35.389Z,99301.44
2019-04-21T15:24:08.728Z,99299.66
2019-04-21T15:26:42.049Z,99300.81
2019-04-21T15:29:15.073Z,99297.89
2019-04-21T15:31:48.371Z,99298.38
2019-04-21T15:34:22.531Z,99294.81
2019-04-21T15:36:55.610Z,99288.16
2019-04-21T15:39:28.128Z,99286.03
2019-04-21T15:42:00.794Z,99279.72
2019-04-21T15:44:34.642Z,99277.11
2019-04-21T15:47:08.268Z,99282.30
2019-04-21T15:50:02.940Z,99280.50
2019-04-21T15:52:31.669Z,99279.72
2019-04-21T15:55:23.164Z,99276.80
2019-04-21T15:58:04.829Z,99276.15
2019-04-21T16:00:52.449Z,99271.92
2019-04-21T16:03:24.922Z,99267.55
2019-04-21T16:05:57.351Z,99264.14
2019-04-21T16:08:31.135Z,99260.89
2019-04-21T16:11:05.968Z,99254.41
2019-04-21T16:13:39.418Z,99257.00
2019-04-21T16:16:12.675Z,99257.02
2019-04-21T16:18:45.989Z,99253.78
2019-04-21T16:21:19.824Z,99255.07
2019-04-21T16:23:52.325Z,99255.91
2019-04-21T16:26:24.745Z,99250.69
2019-04-21T16:28:57.462Z,99247.13
2019-04-21T16:31:30.177Z,99243.91
2019-04-21T16:34:03.087Z,99242.58
2019-04-21T16:36:35.986Z,99232.21
2019-04-21T16:39:09.560Z,99231.06
2019-04-21T16:41:42.511Z,99228.95
2019-04-21T16:44:14.959Z,99227.50
2019-04-21T16:46:47.570Z,99223.44
2019-04-21T16:49:20.061Z,99225.06
2019-04-21T16:52:28.093Z,99223.46
2019-04-21T16:55:06.547Z,99216.65
2019-04-21T16:57:43.811Z,99219.73
2019-04-21T17:00:31.595Z,99212.42
2019-04-21T17:02:54.807Z,99211.14
2019-04-21T17:05:27.927Z,99210.51
2019-04-21T17:08:01.792Z,99210.83
2019-04-21T17:10:34.975Z,99210.98
2019-04-21T17:13:07.505Z,99211.47
2019-04-21T17:15:57.551Z,99203.38
2019-04-21T17:18:33.351Z,99203.22
2019-04-21T17:20:53.813Z,99204.02
2019-04-21T17:23:22.396Z,99202.09
2019-04-21T17:25:55.209Z,99206.94
2019-04-21T17:28:27.764Z,99207.13
2019-04-21T17:31:00.195Z,99204.20
2019-04-21T17:33:33.856Z,99201.95
2019-04-21T17:36:07.310Z,99205.52
2019-04-21T17:38:39.883Z,99200.81
2019-04-21T17:41:25.112Z,99201.46
2019-04-21T17:43:47.778Z,99200.81
2019-04-21T17:46:30.501Z,99198.22
2019-04-21T17:48:54.773Z,99200.16
2019-04-21T17:51:54.608Z,99201.45
2019-04-21T17:54:37.168Z,99204.19
2019-04-21T17:57:26.731Z,99208.27
2019-04-21T18:00:11.644Z,99209.37
2019-04-21T18:02:35.096Z,99211.66
2019-04-21T18:05:08.680Z,99216.20
2019-04-21T18:07:47.803Z,99213.12
2019-04-21T18:10:11.238Z,99209.22
2019-04-21T18:12:43.593Z,99216.52
2019-04-21T18:15:24.448Z,99216.21
2019-04-21T18:17:38.880Z,99214.08
2019-04-21T18:20:13.876Z,99215.37
2019-04-21T18:22:57.261Z,99213.77
2019-04-21T18:25:43.925Z,99213.27
2019-04-21T18:28:04.933Z,99211.02
2019-04-21T18:30:46.780Z,99210.18
2019-04-21T18:33:27.095Z,99216.36
2019-04-21T18:36:30.238Z,99216.66
2019-04-21T18:39:18.141Z,99214.22
2019-04-21T18:42:02.664Z,99218.91
2019-04-21T18:44:58.365Z,99211.77
2019-04-21T18:47:49.846Z,99216.27
2019-04-21T18:50:31.588Z,99217.36
2019-04-21T18:53:16.689Z,99214.61
2019-04-21T18:55:46.731Z,99210.70
2019-04-21T18:58:15.742Z,99217.00
2019-04-21T19:00:51.109Z,99215.06
2019-04-21T19:03:28.159Z,99216.02
2019-04-21T19:06:06.481Z,99221.66
2019-04-21T19:08:54.944Z,99221.50
2019-04-21T19:11:23.987Z,99223.39
2019-04-21T19:22:23.170Z,99227.28
2019-04-21T19:24:59.715Z,99228.39
2019-04-21T19:27:20.182Z,99227.55
2019-04-21T19:29:58.343Z,99224.27
2019-04-21T19:32:27.216Z,99220.05
2019-04-21T19:34:45.501Z,99223.91
2019-04-21T19:37:22.042Z,99221.12
2019-04-21T19:40:04.726Z,99221.09
2019-04-21T19:42:35.434Z,99220.73
2019-04-21T19:45:15.140Z,99222.95
2019-04-21T19:47:48.807Z,99220.52
2019-04-21T19:50:30.914Z,99217.41
2019-04-21T19:52:52.221Z,99218.17
2019-04-21T19:55:16.098Z,99212.33
2019-04-21T19:57:49.263Z,99211.00
2019-04-21T20:00:22.373Z,99209.17
2019-04-21T20:02:56.352Z,99208.52
2019-04-21T20:05:38.432Z,99203.77
2019-04-21T20:08:20.606Z,99204.39
2019-04-21T20:10:55.301Z,99199.50
2019-04-21T20:13:43.688Z,99195.91
2019-04-21T20:16:06.552Z,99194.74
2019-04-21T20:18:27.448Z,99192.45
2019-04-21T20:20:54.645Z,99188.03
2019-04-21T20:23:31.945Z,99187.86
2019-04-21T20:26:04.468Z,99185.86
2019-04-21T20:28:45.739Z,99189.88
2019-04-21T20:31:23.705Z,99195.98
2019-04-21T20:34:07.779Z,99193.33
2019-04-21T20:36:43.136Z,99192.00
2019-04-21T20:38:58.037Z,99189.06
2019-04-21T20:41:42.008Z,99189.66
2019-04-21T20:44:18.404Z,99188.66
2019-04-21T20:46:52.917Z,99188.61
2019-04-21T20:49:20.695Z,99182.44
2019-04-21T20:52:08.425Z,99181.91
2019-04-21T20:54:28.582Z,99181.02
2019-04-21T20:57:09.509Z,99181.66
2019-04-21T20:59:37.573Z,99180.16
2019-04-21T21:02:17.218Z,99175.10
2019-04-21T21:04:43.472Z,99172.16
2019-04-21T21:07:38.327Z,99171.13
2019-04-21T21:10:00.147Z,99170.27
2019-04-21T21:12:43.109Z,99171.05
2019-04-21T21:15:00.077Z,99169.36
2019-04-21T21:17:49.380Z,99169.32
2019-04-21T21:20:23.183Z,99165.42
2019-04-21T21:22:46.567Z,99163.12
2019-04-21T21:25:32.170Z,99170.63
2019-04-21T21:27:51.937Z,99168.96
2019-04-21T21:30:30.776Z,99165.04
2019-04-21T21:33:11.406Z,99163.70
2019-04-21T21:35:35.751Z,99162.55
2019-04-21T21:38:13.231Z,99160.88
2019-04-21T21:40:46.556Z,99162.45
2019-04-21T21:43:08.290Z,99160.47
2019-04-21T21:45:46.821Z,99159.61
2019-04-21T21:48:27.484Z,99157.58
2019-04-21T21:50:57.752Z,99162.05
2019-04-21T21:53:25.434Z,99158.31
2019-04-21T21:55:56.319Z,99153.77
2019-04-21T21:58:34.881Z,99152.79
2019-04-21T22:01:06.428Z,99160.83
2019-04-21T22:03:42.765Z,99155.60
2019-04-21T22:06:17.500Z,99148.27
2019-04-21T22:08:46.140Z,99146.94
2019-04-21T22:11:20.018Z,99143.19
2019-04-21T22:13:57.621Z,99139.31
2019-04-21T22:16:38.883Z,99137.16
2019-04-21T22:19:19.315Z,99132.42
2019-04-21T22:21:53.610Z,99139.20
2019-04-21T22:24:23.626Z,99136.09
2019-04-21T22:26:43.349Z,99140.27
2019-04-21T22:29:15.992Z,99134.09
2019-04-21T22:31:53.914Z,99138.52
2019-04-21T22:34:29.647Z,99138.17
2019-04-21T22:37:16.702Z,99138.14
2019-04-21T22:39:49.600Z,99140.37
2019-04-21T22:42:12.158Z,99143.54
2019-04-21T22:44:40.598Z,99139.93
2019-04-21T22:47:18.520Z,99134.28
2019-04-21T22:49:48.494Z,99132.78
2019-04-21T22:52:24.615Z,99131.82
2019-04-21T22:54:55.999Z,99128.55
2019-04-21T22:57:32.550Z,99126.58
2019-04-21T23:00:07.124Z,99129.76
2019-04-21T23:02:39.305Z,99123.26
2019-04-21T23:05:16.790Z,99124.34
2019-04-21T23:07:50.262Z,99126.06
2019-04-21T23:10:23.242Z,99125.51
2019-04-21T23:12:58.475Z,99129.65
2019-04-21T23:15:39.494Z,99126.57
2019-04-21T23:18:22.000Z,99119.74
2019-04-21T23:20:53.562Z,99120.55
2019-04-21T23:23:35.759Z,99120.52
2019-04-21T23:26:09.770Z,99117.45
2019-04-21T23:28:47.409Z,99116.19
2019-04-21T23:31:21.846Z,99110.19
2019-04-21T23:33:32.738Z,99112.44
2019-04-21T23:36:12.998Z,99113.43
2019-04-21T23:38:44.188Z,99112.76
2019-04-21T23:41:13.539Z,99102.44
2019-04-21T23:43:52.893Z,99110.19
2019-04-21T23:46:25.847Z,99103.91
2019-04-21T23:49:07.497Z,99101.47
2019-04-21T23:51:41.004Z,99100.34
2019-04-21T23:54:02.443Z,99096.95
2019-04-21T23:56:39.538Z,99096.92
2019-04-21T23:59:11.586Z,99096.56
